Time;durP1;ratioP1;P1;durP2;ratioP2;P2;SDS_P1;SDS_P2;PMS_P1;PMS_P2;Temp;Humidity;BMP_temperature;BMP_pressure;BME280_temperature;BME280_humidity;BME280_pressure;Samples;Min_cycle;Max_cycle;Signal;HPM_P1;HPM_P2
2022/01/27 00:05:53;;;;;;;44.30;27.08;;;;;;;2.86;84.29;102766.72;5032801;28;20110;-70
2022/01/27 00:08:25;;;;;;;38.83;26.40;;;;;;;2.87;84.22;102770.22;5027491;28;20044;-70
2022/01/27 00:10:53;;;;;;;39.85;26.15;;;;;;;2.85;84.48;102759.75;5011947;28;20124;-71
2022/01/27 00:13:25;;;;;;;41.17;27.73;;;;;;;2.85;84.25;102748.34;5012429;28;20026;-71
2022/01/27 00:15:59;;;;;;;40.85;26.45;;;;;;;2.84;84.27;102737.00;5012286;28;20121;-71
2022/01/27 00:18:25;;;;;;;37.65;26.40;;;;;;;2.83;84.39;102730.03;5012396;28;20034;-72
2022/01/27 00:20:51;;;;;;;38.88;26.08;;;;;;;2.83;84.34;102722.16;5012110;28;20026;-71
2022/01/27 00:23:16;;;;;;;42.90;26.75;;;;;;;2.84;83.90;102721.25;5011970;28;20028;-71
2022/01/27 00:25:42;;;;;;;39.00;26.40;;;;;;;2.84;84.50;102717.78;5012196;28;20049;-70
2022/01/27 00:28:08;;;;;;;39.50;26.83;;;;;;;2.85;84.22;102714.25;5011970;28;20030;-71
2022/01/27 00:30:35;;;;;;;39.15;26.13;;;;;;;2.86;84.26;102723.84;5011912;28;20076;-71
2022/01/27 00:33:03;;;;;;;39.33;26.40;;;;;;;2.86;84.30;102729.97;5012037;28;20427;-72
2022/01/27 00:35:28;;;;;;;42.53;26.30;;;;;;;2.86;84.54;102723.84;5012135;28;20494;-70
2022/01/27 00:37:54;;;;;;;40.50;26.35;;;;;;;2.87;84.33;102728.22;5011818;28;20034;-72
2022/01/27 00:40:21;;;;;;;40.30;27.67;;;;;;;2.88;83.87;102729.94;5018247;28;20061;-71
2022/01/27 00:42:47;;;;;;;40.45;27.40;;;;;;;2.90;84.35;102718.56;5031482;28;20064;-71
2022/01/27 00:45:12;;;;;;;39.55;26.27;;;;;;;2.90;84.14;102725.56;5027025;28;20057;-72
2022/01/27 00:47:37;;;;;;;40.22;26.77;;;;;;;2.92;84.17;102723.78;5021247;28;20475;-71
2022/01/27 00:50:03;;;;;;;42.38;26.77;;;;;;;2.92;84.17;102718.53;5031285;28;20035;-71
2022/01/27 00:52:37;;;;;;;40.45;26.67;;;;;;;2.91;84.16;102696.66;5031309;28;20394;-71
2022/01/27 00:55:03;;;;;;;39.40;25.50;;;;;;;2.94;84.03;102703.63;5029360;28;20521;-71
2022/01/27 00:57:42;;;;;;;40.55;25.95;;;;;;;2.95;84.31;102700.13;5029740;28;20042;-72
2022/01/27 01:00:09;;;;;;;39.95;26.25;;;;;;;2.94;84.34;102693.13;5031314;28;20426;-71
2022/01/27 01:02:46;;;;;;;39.47;26.60;;;;;;;2.95;84.40;102692.25;5026255;28;20121;-72
2022/01/27 01:05:33;;;;;;;36.75;24.63;;;;;;;2.95;84.14;102681.75;5026764;28;20052;-72
2022/01/27 01:08:15;;;;;;;41.22;27.25;;;;;;;2.98;84.48;102697.41;5011366;28;20472;-72
2022/01/27 01:15:59;;;;;;;37.75;25.13;;;;;;;3.02;84.06;102682.53;5011440;28;20037;-71
2022/01/27 01:18:41;;;;;;;41.35;24.23;;;;;;;3.01;84.27;102672.91;5011169;28;20038;-72
2022/01/27 01:29:39;;;;;;;35.15;23.65;;;;;;;3.05;84.07;102664.97;5010799;28;20045;-72
2022/01/27 01:34:32;;;;;;;33.25;24.02;;;;;;;3.07;84.00;102668.41;5012346;28;20060;-70
2022/01/27 01:37:01;;;;;;;36.25;24.63;;;;;;;3.08;83.75;102667.53;5011037;28;20038;-71
2022/01/27 01:39:33;;;;;;;36.83;24.58;;;;;;;3.08;84.37;102662.28;5010992;28;20025;-70
2022/01/27 01:42:00;;;;;;;38.88;24.77;;;;;;;3.10;83.91;102657.00;5016824;28;20471;-71
2022/01/27 01:44:27;;;;;;;38.83;26.55;;;;;;;3.10;83.76;102647.38;5030459;28;20021;-72
2022/01/27 01:46:53;;;;;;;36.35;25.75;;;;;;;3.10;83.88;102636.00;5021545;28;20115;-72
2022/01/27 01:49:22;;;;;;;37.53;25.40;;;;;;;3.11;83.97;102627.22;5023633;28;20065;-72
2022/01/27 01:51:48;;;;;;;35.17;25.10;;;;;;;3.12;83.79;102626.34;5030351;28;20502;-72
2022/01/27 01:54:13;;;;;;;37.92;25.20;;;;;;;3.13;83.88;102634.19;5025191;28;20124;-72
2022/01/27 01:56:41;;;;;;;35.03;24.30;;;;;;;3.11;83.81;102629.84;5030161;28;20049;-72
2022/01/27 01:59:06;;;;;;;36.35;24.27;;;;;;;3.13;84.04;102641.19;5019956;28;20065;-72
2022/01/27 02:01:33;;;;;;;36.95;25.13;;;;;;;3.14;83.63;102633.28;5030319;28;20493;-71
2022/01/27 02:04:03;;;;;;;38.15;25.73;;;;;;;3.13;83.97;102628.94;5025215;28;20036;-71
2022/01/27 02:06:35;;;;;;;38.60;25.40;;;;;;;3.16;84.12;102630.63;5017228;28;20037;-70
2022/01/27 02:19:39;;;;;;;33.97;23.20;;;;;;;3.20;83.95;102592.06;5029971;28;20084;-72
2022/01/27 02:22:04;;;;;;;37.13;24.42;;;;;;;3.22;83.50;102578.03;5030119;28;20029;-71
2022/01/27 02:24:33;;;;;;;33.58;24.20;;;;;;;3.21;84.04;102580.69;5024153;28;20061;-71
2022/01/27 02:26:59;;;;;;;36.22;24.35;;;;;;;3.20;84.04;102587.69;5016774;28;20029;-71
2022/01/27 02:29:25;;;;;;;33.75;23.92;;;;;;;3.20;83.99;102586.81;5029704;28;20128;-72
2022/01/27 02:31:52;;;;;;;32.40;23.67;;;;;;;3.21;83.93;102597.28;5028858;28;20602;-71
2022/01/27 02:34:19;;;;;;;36.90;24.38;;;;;;;3.21;84.07;102599.91;5027380;28;20065;-72
2022/01/27 02:36:44;;;;;;;36.60;24.27;;;;;;;3.21;84.09;102591.19;5014571;28;20488;-72
2022/01/27 02:39:11;;;;;;;34.90;23.38;;;;;;;3.22;84.33;102593.78;5027254;28;20043;-71
2022/01/27 02:41:50;;;;;;;35.58;24.65;;;;;;;3.24;84.54;102591.13;5029952;28;20494;-72
2022/01/27 02:44:19;;;;;;;;;;;;;;;3.28;84.50;102580.56;5028943;28;20028;-72
2022/01/27 02:46:45;;;;;;;35.58;23.08;;;;;;;3.25;84.25;102580.59;5027223;28;19913;-72
2022/01/27 02:49:11;;;;;;;35.22;23.00;;;;;;;3.24;84.63;102584.09;5026985;28;20442;-72
2022/01/27 02:51:37;;;;;;;35.00;22.52;;;;;;;3.28;84.29;102566.53;5029950;28;20030;-71
2022/01/27 02:54:03;;;;;;;37.00;22.58;;;;;;;3.29;84.52;102563.88;5019620;28;20046;-71
2022/01/27 02:56:28;;;;;;;39.92;23.98;;;;;;;3.29;84.43;102563.03;5022248;28;20022;-72
2022/01/27 02:58:54;;;;;;;36.50;22.92;;;;;;;3.29;84.44;102555.16;5026000;28;20667;-71
2022/01/27 03:01:21;;;;;;;34.38;23.30;;;;;;;3.31;84.56;102556.84;5028510;28;20056;-72
2022/01/27 03:03:46;;;;;;;37.63;23.30;;;;;;;3.30;84.59;102551.63;5024189;28;20052;-72
2022/01/27 03:06:11;;;;;;;34.17;22.95;;;;;;;3.32;84.73;102552.47;5029807;28;20022;-72
2022/01/27 03:08:37;;;;;;;36.65;23.33;;;;;;;3.34;84.37;102529.66;5029652;28;20045;-72
2022/01/27 03:11:06;;;;;;;33.30;22.58;;;;;;;3.34;84.49;102534.91;5023468;28;20041;-72
2022/01/27 03:13:31;;;;;;;;;;;;;;;3.38;84.66;102527.84;5033705;28;20026;-71
2022/01/27 03:15:57;;;;;;;35.45;21.17;;;;;;;3.33;84.60;102547.19;5031460;28;19916;-72
2022/01/27 03:18:22;;;;;;;36.97;23.10;;;;;;;3.34;84.64;102548.03;5033423;28;20073;-72
2022/01/27 03:20:47;;;;;;;32.78;21.60;;;;;;;3.34;84.63;102558.53;5033125;28;20120;-72
2022/01/27 03:23:13;;;;;;;34.72;22.83;;;;;;;3.33;84.85;102536.69;5033329;28;20095;-72
2022/01/27 03:25:38;;;;;;;36.85;22.67;;;;;;;3.34;84.58;102527.03;5028701;28;20085;-72
2022/01/27 03:28:04;;;;;;;34.08;22.73;;;;;;;3.34;84.76;102521.78;5030967;28;20018;-72
2022/01/27 03:30:30;;;;;;;33.33;22.85;;;;;;;3.33;84.96;102531.44;5021712;28;20025;-72
2022/01/27 03:32:55;;;;;;;33.92;21.75;;;;;;;3.33;85.02;102510.41;5023195;28;20034;-72
2022/01/27 03:35:21;;;;;;;38.22;23.73;;;;;;;3.34;84.96;102517.38;5032659;28;20392;-72
2022/01/27 03:37:46;;;;;;;35.20;22.23;;;;;;;3.35;85.06;102510.38;5032803;28;20032;-72
2022/01/27 03:40:12;;;;;;;35.65;22.10;;;;;;;3.33;85.02;102499.03;5031761;28;20033;-72
2022/01/27 03:42:44;;;;;;;34.50;22.15;;;;;;;3.32;85.07;102511.31;5021297;28;20467;-72
2022/01/27 03:45:10;;;;;;;38.40;22.05;;;;;;;3.31;84.98;102514.84;5031090;28;20124;-72
2022/01/27 03:47:36;;;;;;;36.58;22.40;;;;;;;3.31;85.20;102516.56;5028293;28;20018;-72
2022/01/27 03:50:01;;;;;;;34.35;21.85;;;;;;;3.29;85.14;102516.59;5024525;28;20028;-72
2022/01/27 03:52:27;;;;;;;33.83;22.83;;;;;;;3.29;85.48;102519.22;5030493;28;20490;-72
2022/01/27 03:54:52;;;;;;;37.65;22.52;;;;;;;3.29;85.55;102513.97;5029275;28;20045;-72
2022/01/27 03:57:17;;;;;;;40.05;22.23;;;;;;;3.29;85.79;102519.22;5030614;28;20470;-72
2022/01/27 03:59:42;;;;;;;33.65;22.23;;;;;;;3.29;85.68;102508.72;5031182;28;20053;-72
2022/01/27 04:02:08;;;;;;;36.22;22.15;;;;;;;3.30;85.70;102493.84;5024085;28;20472;-71
2022/01/27 04:04:33;;;;;;;34.70;22.27;;;;;;;3.31;85.92;102491.22;5032091;28;20027;-71
2022/01/27 04:06:59;;;;;;;33.38;21.88;;;;;;;3.31;85.86;102499.09;5029214;28;20041;-71
2022/01/27 04:09:24;;;;;;;35.15;22.48;;;;;;;3.34;85.97;102485.88;5031019;28;20025;-72
2022/01/27 04:11:50;;;;;;;36.85;22.20;;;;;;;3.35;85.97;102484.13;5032035;28;20037;-72
2022/01/27 04:14:15;;;;;;;33.88;22.08;;;;;;;3.34;86.03;102483.25;5025701;28;20396;-72
2022/01/27 04:16:41;;;;;;;34.70;21.92;;;;;;;3.37;86.05;102463.94;5032319;28;20456;-72
2022/01/27 04:19:06;;;;;;;36.13;22.85;;;;;;;3.38;86.24;102464.78;5031917;28;20033;-72
2022/01/27 04:21:32;;;;;;;33.13;21.23;;;;;;;3.37;86.03;102461.31;5029941;28;20077;-72
2022/01/27 04:23:57;;;;;;;37.28;22.05;;;;;;;3.37;86.29;102468.34;5030610;28;20675;-72
2022/01/27 04:26:31;;;;;;;34.95;21.60;;;;;;;3.38;86.13;102472.69;5031715;28;20391;-72
2022/01/27 04:28:56;;;;;;;33.03;20.52;;;;;;;3.36;86.11;102462.19;5022545;28;20025;-72
2022/01/27 04:31:24;;;;;;;35.60;22.58;;;;;;;3.38;86.38;102468.31;5031643;28;20032;-73
2022/01/27 04:33:49;;;;;;;33.53;20.45;;;;;;;3.36;85.95;102474.47;5020793;28;20422;-72
2022/01/27 04:36:28;;;;;;;33.22;21.08;;;;;;;3.37;86.22;102468.34;5031574;28;20091;-72
2022/01/27 04:39:21;;;;;;;;;;;;;;;3.42;86.27;102461.22;5032138;28;20450;-72
2022/01/27 04:41:47;;;;;;;35.15;20.80;;;;;;;3.37;86.37;102440.31;5025497;28;19913;-72
2022/01/27 04:47:10;;;;;;;34.13;20.00;;;;;;;3.37;86.52;102449.94;5031387;28;20041;-72
2022/01/27 04:49:29;;;;;;;34.90;21.38;;;;;;;3.37;86.39;102449.94;5030535;28;20052;-72
2022/01/27 04:51:54;;;;;;;36.45;21.30;;;;;;;3.37;86.46;102453.44;5031373;28;20025;-72
2022/01/27 04:54:32;;;;;;;32.08;20.42;;;;;;;3.36;86.49;102448.22;5030996;28;20045;-72
2022/01/27 04:57:00;;;;;;;35.13;21.63;;;;;;;3.33;86.75;102444.75;5029790;28;20434;-72
2022/01/27 04:59:29;;;;;;;32.40;20.60;;;;;;;3.32;86.64;102439.53;5031189;28;20395;-72
2022/01/27 05:02:02;;;;;;;30.90;20.08;;;;;;;3.30;86.66;102423.81;5020985;28;20037;-71
2022/01/27 05:04:33;;;;;;;35.05;20.55;;;;;;;3.30;86.80;102422.97;5029578;28;20033;-71
2022/01/27 05:06:58;;;;;;;32.75;20.40;;;;;;;3.29;86.68;102422.06;5024100;28;20111;-71
2022/01/27 05:09:24;;;;;;;32.90;20.80;;;;;;;3.27;86.80;102412.50;5027899;28;20049;-71
2022/01/27 05:12:08;;;;;;;36.47;21.20;;;;;;;3.25;86.99;102414.31;5022810;28;20034;-71
2022/01/27 05:14:33;;;;;;;35.72;20.67;;;;;;;3.23;87.02;102414.34;5011486;28;20038;-71
2022/01/27 05:16:58;;;;;;;32.90;20.33;;;;;;;3.24;87.12;102417.81;5010034;28;20380;-71
2022/01/27 05:19:24;;;;;;;36.42;21.13;;;;;;;3.23;87.10;102410.81;5011254;28;20077;-71
2022/01/27 05:21:49;;;;;;;30.90;20.05;;;;;;;3.21;87.37;102402.97;5009801;28;20446;-72
2022/01/27 05:24:14;;;;;;;31.23;20.55;;;;;;;3.19;87.18;102393.41;5010918;28;20036;-72
2022/01/27 05:26:40;;;;;;;32.47;20.65;;;;;;;3.21;87.47;102397.72;5010932;28;20955;-72
2022/01/27 05:29:09;;;;;;;31.50;20.77;;;;;;;3.22;87.71;102398.63;5010913;28;20491;-73
2022/01/27 05:31:35;;;;;;;34.22;20.23;;;;;;;3.25;87.58;102399.41;5011213;28;20072;-72
2022/01/27 05:34:00;;;;;;;39.75;22.48;;;;;;;3.28;87.78;102390.59;5010506;28;20050;-72
2022/01/27 05:36:26;;;;;;;35.83;20.58;;;;;;;3.30;87.75;102373.06;5010899;28;20073;-72
2022/01/27 05:38:51;;;;;;;32.03;21.02;;;;;;;3.30;87.69;102380.94;5010813;28;20030;-72
2022/01/27 05:41:16;;;;;;;29.48;19.17;;;;;;;3.30;87.87;102380.94;5010872;28;20041;-72
2022/01/27 05:43:43;;;;;;;34.95;20.95;;;;;;;3.31;87.87;102382.66;5010730;28;20464;-72
2022/01/27 05:46:08;;;;;;;35.72;20.33;;;;;;;3.32;88.03;102381.75;5010758;28;20037;-72
2022/01/27 05:48:34;;;;;;;34.75;22.45;;;;;;;3.33;88.02;102381.72;5010610;28;20018;-72
2022/01/27 05:50:59;;;;;;;36.72;21.80;;;;;;;3.35;87.94;102379.06;5010687;28;20041;-72
2022/01/27 05:53:25;;;;;;;38.15;21.42;;;;;;;3.35;87.97;102376.44;5010548;28;20045;-73
2022/01/27 05:55:50;;;;;;;33.30;20.45;;;;;;;3.38;87.96;102379.00;5009335;28;20034;-72
2022/01/27 05:58:16;;;;;;;37.53;21.85;;;;;;;3.39;87.94;102372.84;5011020;28;20384;-72
2022/01/27 06:00:41;;;;;;;35.45;20.98;;;;;;;3.44;87.94;102378.00;5027039;28;20060;-72
2022/01/27 06:03:06;;;;;;;34.42;20.67;;;;;;;3.46;88.13;102378.81;5030348;28;20112;-72
2022/01/27 06:05:33;;;;;;;31.63;20.05;;;;;;;3.46;87.95;102363.91;5030246;28;20057;-72
2022/01/27 06:07:58;;;;;;;35.35;20.27;;;;;;;3.49;88.00;102370.88;5028923;28;20026;-72
2022/01/27 06:10:23;;;;;;;37.38;21.23;;;;;;;3.51;88.08;102372.59;5030222;28;20041;-72
2022/01/27 06:12:56;;;;;;;35.10;21.42;;;;;;;3.53;88.07;102362.03;5027651;28;20070;-71
2022/01/27 06:15:25;;;;;;;33.80;21.58;;;;;;;3.57;87.90;102353.19;5018806;28;20069;-72
2022/01/27 06:17:51;;;;;;;37.33;21.42;;;;;;;3.57;88.37;102371.56;5030029;28;20026;-72
2022/01/27 06:20:17;;;;;;;34.88;21.05;;;;;;;3.59;88.60;102358.41;5030103;28;20033;-72
2022/01/27 06:22:43;;;;;;;39.65;21.77;;;;;;;3.60;88.76;102361.00;5026759;28;20025;-72
2022/01/27 06:25:10;;;;;;;38.40;22.15;;;;;;;3.61;89.03;102359.22;5027397;28;20100;-72
2022/01/27 06:27:35;;;;;;;39.28;21.98;;;;;;;3.63;89.07;102355.69;5030007;28;20060;-72
2022/01/27 06:30:02;;;;;;;35.38;22.05;;;;;;;3.62;89.58;102356.56;5026085;28;20061;-72
2022/01/27 06:32:27;;;;;;;35.85;21.73;;;;;;;3.62;89.82;102356.56;5029970;28;20025;-72
2022/01/27 06:34:52;;;;;;;40.30;23.15;;;;;;;3.63;89.56;102367.94;5028644;28;20079;-72
2022/01/27 06:37:17;;;;;;;38.38;23.15;;;;;;;3.64;89.88;102356.53;5029658;28;20034;-72
2022/01/27 06:39:43;;;;;;;40.63;23.48;;;;;;;3.64;90.11;102348.66;5030015;28;20033;-71
2022/01/27 06:42:08;;;;;;;38.90;22.67;;;;;;;3.67;90.33;102346.81;5020654;28;20068;-72
2022/01/27 06:44:34;;;;;;;38.80;23.05;;;;;;;3.69;90.05;102344.16;5028100;28;20029;-72
2022/01/27 06:47:00;;;;;;;40.28;23.30;;;;;;;3.67;90.35;102328.41;5029456;28;20033;-72
2022/01/27 06:49:25;;;;;;;36.17;21.48;;;;;;;3.70;90.13;102330.13;5033601;28;20032;-72
2022/01/27 06:51:51;;;;;;;38.35;22.27;;;;;;;3.72;90.40;102314.31;5033406;28;20033;-72
2022/01/27 06:54:17;;;;;;;39.03;23.13;;;;;;;3.72;90.29;102316.94;5026360;28;20041;-72
2022/01/27 06:56:44;;;;;;;37.92;22.80;;;;;;;3.75;90.47;102332.63;5027694;28;20097;-72
2022/01/27 06:59:09;;;;;;;35.42;22.55;;;;;;;3.76;90.52;102332.59;5033400;28;20052;-72
2022/01/27 07:01:34;;;;;;;39.22;22.88;;;;;;;3.78;90.45;102332.53;5033352;28;20026;-72
2022/01/27 07:03:59;;;;;;;40.15;23.23;;;;;;;3.79;90.62;102336.91;5019360;28;20029;-72
2022/01/27 07:06:25;;;;;;;40.80;22.88;;;;;;;3.79;90.39;102329.03;5033751;28;20041;-71
2022/01/27 07:08:50;;;;;;;39.33;23.48;;;;;;;3.80;90.45;102329.00;5033216;28;20075;-72
2022/01/27 07:11:15;;;;;;;44.05;24.25;;;;;;;3.81;90.43;102332.47;5032761;28;20029;-71
2022/01/27 07:13:41;;;;;;;41.80;25.05;;;;;;;3.83;90.37;102331.56;5029646;28;20032;-72
2022/01/27 07:16:07;;;;;;;36.33;22.95;;;;;;;3.84;90.39;102324.53;5032632;28;20087;-71
2022/01/27 07:18:32;;;;;;;42.45;23.98;;;;;;;3.85;90.53;102327.13;5032440;28;20068;-71
2022/01/27 07:20:58;;;;;;;38.85;23.48;;;;;;;3.88;90.30;102332.31;5029694;28;20056;-71
2022/01/27 07:23:23;;;;;;;41.67;24.13;;;;;;;3.88;90.22;102345.44;5031684;28;20028;-71
2022/01/27 07:25:48;;;;;;;40.17;23.55;;;;;;;3.91;90.22;102335.75;5030146;28;20340;-71
2022/01/27 07:28:14;;;;;;;39.47;23.67;;;;;;;3.91;90.28;102339.22;5031577;28;20025;-71
2022/01/27 07:30:39;;;;;;;42.05;23.63;;;;;;;3.93;90.25;102347.06;5031178;28;20411;-71
2022/01/27 07:33:04;;;;;;;41.95;24.77;;;;;;;3.94;90.21;102339.16;5025388;28;20534;-71
2022/01/27 07:35:30;;;;;;;40.67;23.58;;;;;;;3.94;90.25;102339.16;5031494;28;20053;-71
2022/01/27 07:37:55;;;;;;;38.65;23.58;;;;;;;3.98;90.24;102348.72;5030617;28;20064;-71
2022/01/27 07:40:20;;;;;;;46.88;24.75;;;;;;;3.99;90.20;102349.56;5032130;28;20068;-72
2022/01/27 07:42:47;;;;;;;41.20;24.52;;;;;;;4.02;90.19;102347.72;5030043;28;20401;-71
2022/01/27 07:45:12;;;;;;;40.92;24.45;;;;;;;4.02;90.25;102345.09;5031473;28;20076;-72
2022/01/27 07:47:37;;;;;;;45.28;25.73;;;;;;;4.04;90.20;102345.06;5030337;28;20022;-71
2022/01/27 07:50:04;;;;;;;39.45;23.55;;;;;;;4.06;90.18;102341.50;5031484;28;20025;-71
2022/01/27 07:52:29;;;;;;;39.25;23.58;;;;;;;4.09;90.44;102335.28;5031765;28;20025;-71
2022/01/27 07:54:54;;;;;;;44.47;25.80;;;;;;;4.11;90.86;102343.13;5028555;28;20480;-72
2022/01/27 07:57:19;;;;;;;43.80;24.60;;;;;;;4.13;91.37;102347.47;5031559;28;20076;-71
2022/01/27 07:59:45;;;;;;;45.10;25.70;;;;;;;4.14;92.13;102348.31;5024508;28;20052;-71
2022/01/27 08:02:10;;;;;;;46.28;24.70;;;;;;;4.11;92.68;102351.03;5032137;28;20042;-71
2022/01/27 08:04:35;;;;;;;45.10;25.63;;;;;;;4.12;93.00;102350.97;5021234;28;20049;-72
2022/01/27 08:07:02;;;;;;;45.70;25.33;;;;;;;4.11;93.47;102359.75;5043575;28;20045;-72
2022/01/27 08:09:28;;;;;;;49.83;26.50;;;;;;;4.10;94.13;102355.44;5024477;28;20484;-71
2022/01/27 08:11:54;;;;;;;44.22;25.77;;;;;;;4.10;94.58;102351.91;5016229;28;20045;-71
2022/01/27 08:14:19;;;;;;;49.92;28.05;;;;;;;4.08;94.83;102349.34;5017503;28;20034;-71
2022/01/27 08:16:45;;;;;;;52.33;27.92;;;;;;;4.09;95.11;102356.31;5021749;28;20369;-71
2022/01/27 08:19:10;;;;;;;50.88;28.25;;;;;;;4.09;95.42;102356.31;5043133;28;20025;-72
2022/01/27 08:21:35;;;;;;;51.90;28.30;;;;;;;4.09;95.81;102345.81;5032422;28;20021;-72
2022/01/27 08:24:00;;;;;;;47.47;27.80;;;;;;;4.08;96.16;102347.56;5028794;28;20117;-72
2022/01/27 08:26:34;;;;;;;51.10;27.75;;;;;;;4.10;96.39;102347.53;5014856;28;20104;-72
2022/01/27 08:34:31;;;;;;;52.40;29.15;;;;;;;4.10;97.04;102344.03;5015990;28;20395;-72
2022/01/27 08:36:58;;;;;;;52.67;29.08;;;;;;;4.12;96.98;102342.25;5011001;28;20491;-71
2022/01/27 08:39:24;;;;;;;53.60;28.00;;;;;;;4.12;97.26;102345.72;5021066;28;20044;-72
2022/01/27 08:41:50;;;;;;;58.17;29.45;;;;;;;4.12;97.44;102340.47;5032736;28;20029;-71
2022/01/27 08:44:15;;;;;;;52.10;29.48;;;;;;;4.14;97.54;102335.19;5027055;28;20037;-70
2022/01/27 08:46:40;;;;;;;51.63;29.55;;;;;;;4.14;97.61;102336.03;5030491;28;20121;-71
2022/01/27 08:49:06;;;;;;;53.13;28.80;;;;;;;4.16;97.75;102343.88;5026190;28;20364;-71
2022/01/27 08:51:32;;;;;;;50.85;29.38;;;;;;;4.16;98.04;102331.59;5029257;28;20025;-70
2022/01/27 08:53:57;;;;;;;52.45;29.50;;;;;;;4.20;98.04;102337.66;5023959;28;20050;-70
2022/01/27 08:56:23;;;;;;;56.53;30.10;;;;;;;4.19;98.24;102331.50;5038916;28;20475;-68
2022/01/27 08:58:49;;;;;;;52.47;30.08;;;;;;;4.23;98.32;102333.19;5034424;28;20056;-71
2022/01/27 09:01:15;;;;;;;50.65;28.60;;;;;;;4.22;98.36;102336.69;5030657;28;20113;-70
2022/01/27 09:03:40;;;;;;;59.00;30.23;;;;;;;4.19;98.69;102322.75;5020004;28;20108;-71
2022/01/27 09:06:05;;;;;;;50.55;29.55;;;;;;;4.30;98.95;102338.25;5030737;28;20033;-70
2022/01/27 09:08:31;;;;;;;50.85;29.98;;;;;;;4.30;98.96;102333.88;5027745;28;20033;-71
2022/01/27 09:10:56;;;;;;;51.83;29.95;;;;;;;4.34;99.28;102343.41;5031771;28;20107;-72
2022/01/27 09:13:22;;;;;;;51.60;30.17;;;;;;;4.36;99.54;102338.09;5015878;28;20026;-72
2022/01/27 09:15:49;;;;;;;55.92;30.58;;;;;;;4.38;99.64;102331.03;5028386;28;20052;-71
2022/01/27 09:18:15;;;;;;;51.40;30.13;;;;;;;4.43;99.73;102326.53;5032262;28;20167;-72
2022/01/27 09:20:41;;;;;;;50.85;31.17;;;;;;;4.46;100.00;102329.06;5031597;28;20072;-71
2022/01/27 09:23:13;;;;;;;55.47;32.17;;;;;;;4.48;100.00;102334.28;5028480;28;20117;-71
2022/01/27 09:25:44;;;;;;;52.72;30.42;;;;;;;4.52;100.00;102323.63;5026637;28;20387;-71
2022/01/27 09:28:11;;;;;;;51.25;31.02;;;;;;;4.55;100.00;102328.81;5032675;28;20048;-70
2022/01/27 09:30:37;;;;;;;51.85;30.75;;;;;;;4.57;100.00;102329.63;5033434;28;20463;-71
2022/01/27 09:33:02;;;;;;;49.22;29.80;;;;;;;4.61;100.00;102330.41;5032278;28;20026;-70
2022/01/27 09:35:28;;;;;;;54.63;30.95;;;;;;;4.63;100.00;102341.78;5029850;28;20018;-70
2022/01/27 09:37:54;;;;;;;51.13;30.75;;;;;;;4.64;100.00;102328.53;5031579;28;20040;-69
2022/01/27 09:40:19;;;;;;;48.95;31.00;;;;;;;4.68;100.00;102325.81;5030938;28;20037;-69
2022/01/27 09:42:52;;;;;;;48.15;30.10;;;;;;;4.70;100.00;102331.94;5031903;28;20022;-69
2022/01/27 09:45:18;;;;;;;43.75;28.75;;;;;;;4.71;100.00;102323.97;5011303;28;20325;-71
2022/01/27 09:47:47;;;;;;;46.53;29.50;;;;;;;4.72;100.00;102336.22;5045396;28;20033;-69
2022/01/27 09:52:41;;;;;;;42.45;28.60;;;;;;;4.76;100.00;102335.25;5017061;28;20404;-70
2022/01/27 09:55:07;;;;;;;43.72;27.95;;;;;;;4.78;100.00;102343.09;5012487;28;20038;-69
2022/01/27 09:57:32;;;;;;;44.60;28.27;;;;;;;4.79;100.00;102342.19;5018061;28;20030;-69
2022/01/27 09:59:58;;;;;;;45.53;28.85;;;;;;;4.81;100.00;102348.25;5014591;28;20026;-70
2022/01/27 10:02:26;;;;;;;46.70;29.77;;;;;;;4.82;100.00;102348.22;5012607;28;20030;-70
2022/01/27 10:04:57;;;;;;;42.83;28.83;;;;;;;4.83;100.00;102349.09;5015899;28;20030;-70
2022/01/27 10:07:27;;;;;;;42.88;29.00;;;;;;;4.83;100.00;102354.38;5011260;28;20029;-70
2022/01/27 10:10:02;;;;;;;41.42;29.08;;;;;;;4.85;100.00;102352.56;5019706;28;20025;-70
2022/01/27 10:12:32;;;;;;;42.70;27.98;;;;;;;4.85;100.00;102349.91;5026504;28;20029;-70
2022/01/27 10:15:05;;;;;;;40.60;27.58;;;;;;;4.87;100.00;102341.97;5029947;28;20021;-69
2022/01/27 10:17:33;;;;;;;40.67;27.45;;;;;;;4.90;100.00;102337.50;5033195;28;20040;-69
2022/01/27 10:19:59;;;;;;;37.33;26.58;;;;;;;4.92;100.00;102343.56;5032849;28;20048;-70
2022/01/27 10:22:24;;;;;;;40.65;26.33;;;;;;;4.93;100.00;102345.31;5033998;28;20509;-71
2022/01/27 10:25:01;;;;;;;42.13;27.30;;;;;;;4.96;100.00;102347.84;5035685;28;20096;-69
2022/01/27 10:27:46;;;;;;;39.53;26.13;;;;;;;4.97;100.00;102349.56;5037290;28;20359;-70
2022/01/27 10:32:57;;;;;;;35.53;25.25;;;;;;;5.02;100.00;102343.31;5029759;28;20253;-71
2022/01/27 10:35:25;;;;;;;36.53;27.10;;;;;;;5.00;100.00;102336.31;5015396;28;20033;-70
2022/01/27 10:38:04;;;;;;;38.88;28.90;;;;;;;5.03;100.00;102339.75;5015836;28;20026;-70
2022/01/27 10:40:33;;;;;;;39.72;27.08;;;;;;;5.04;100.00;102336.22;5016933;28;20022;-70
2022/01/27 10:43:03;;;;;;;38.08;26.45;;;;;;;5.07;100.00;102337.00;5018533;28;20025;-70
2022/01/27 10:45:29;;;;;;;37.00;27.27;;;;;;;5.08;100.00;102341.38;5014030;28;20025;-69
2022/01/27 10:48:18;;;;;;;38.20;26.60;;;;;;;5.09;100.00;102339.59;5014365;28;20026;-69
2022/01/27 10:50:59;;;;;;;37.90;26.83;;;;;;;5.10;100.00;102336.91;5038658;28;20095;-70
2022/01/27 10:53:46;;;;;;;35.40;25.05;;;;;;;5.13;100.00;102338.56;5035432;28;20133;-71
2022/01/27 10:56:39;;;;;;;38.72;25.75;;;;;;;5.16;100.00;102338.47;5027615;28;20704;-70
2022/01/27 10:59:10;;;;;;;35.80;24.92;;;;;;;5.16;100.00;102344.63;5033414;28;20435;-69
2022/01/27 11:01:41;;;;;;;35.05;24.80;;;;;;;5.18;100.00;102342.81;5033141;28;20040;-70
2022/01/27 11:04:09;;;;;;;35.88;26.40;;;;;;;5.22;100.00;102342.72;5029654;28;20120;-70
2022/01/27 11:06:36;;;;;;;31.90;24.15;;;;;;;5.24;100.00;102335.63;5018973;28;20057;-70
2022/01/27 11:09:10;;;;;;;34.97;24.98;;;;;;;5.27;100.00;102335.53;5033284;28;20127;-70
2022/01/27 11:11:39;;;;;;;34.97;26.25;;;;;;;5.30;100.00;102333.66;5036167;28;20406;-70
2022/01/27 11:14:04;;;;;;;36.22;25.70;;;;;;;5.32;100.00;102334.47;5031910;28;20492;-70
2022/01/27 11:16:35;;;;;;;37.45;26.67;;;;;;;5.35;100.00;102326.50;5031563;28;20033;-70
2022/01/27 11:21:53;;;;;;;37.70;26.35;;;;;;;5.43;100.00;102326.25;5033660;28;20045;-70
2022/01/27 11:24:29;;;;;;;37.50;25.20;;;;;;;5.46;100.00;102327.91;5031269;28;20128;-70
2022/01/27 11:26:58;;;;;;;36.17;26.05;;;;;;;5.48;100.00;102321.72;5031519;28;20025;-70
2022/01/27 11:29:25;;;;;;;39.78;26.30;;;;;;;5.51;100.00;102300.53;5040290;28;20442;-71
2022/01/27 11:32:14;;;;;;;42.08;27.35;;;;;;;5.55;100.00;102301.28;5040766;28;20460;-70
2022/01/27 11:34:44;;;;;;;35.28;25.52;;;;;;;5.59;100.00;102300.25;5033198;28;20042;-70
2022/01/27 11:37:10;;;;;;;40.55;25.65;;;;;;;5.63;100.00;102304.53;5031894;28;20030;-70
2022/01/27 11:39:56;;;;;;;36.08;25.73;;;;;;;5.68;100.00;102302.63;5030262;28;20131;-70
2022/01/27 11:42:37;;;;;;;38.35;25.35;;;;;;;5.71;100.00;102305.16;5041356;28;20074;-70
2022/01/27 11:45:20;;;;;;;36.63;25.60;;;;;;;5.74;100.00;102293.63;5034746;28;20045;-70
2022/01/27 11:47:54;;;;;;;39.72;25.65;;;;;;;5.78;100.00;102291.75;5037229;28;20499;-70
2022/01/27 11:50:34;;;;;;;43.28;26.63;;;;;;;5.81;100.00;102287.25;5024693;28;20033;-69
2022/01/27 11:53:08;;;;;;;36.67;26.45;;;;;;;5.82;100.00;102294.25;5023499;28;20352;-70
2022/01/27 11:55:33;;;;;;;34.35;25.58;;;;;;;5.86;100.00;102295.00;5039137;28;20039;-69
2022/01/27 11:58:17;;;;;;;39.53;25.67;;;;;;;5.88;100.00;102285.28;5013977;28;20480;-69
2022/01/27 12:01:06;;;;;;;34.83;25.40;;;;;;;5.92;100.00;102297.44;5015800;28;20531;-69
2022/01/27 12:03:32;;;;;;;37.30;25.08;;;;;;;5.93;100.00;102294.75;5013717;28;20403;-69
2022/01/27 12:06:18;;;;;;;34.10;22.77;;;;;;;5.97;100.00;102281.50;5019355;28;20037;-69
2022/01/27 12:08:44;;;;;;;33.55;22.38;;;;;;;5.97;100.00;102287.63;5014433;28;20022;-69